sensor_id;sensor_type;location;lat;lon;timestamp;pressure;altitude;pressure_sealevel;temperature;humidity
75290;BME280;63883;48.996;20.804;2023-04-24T00:00:04;96000.81;;;3.72;84.96
75290;BME280;63883;48.996;20.804;2023-04-24T00:02:54;96001.66;;;3.69;85.11
75290;BME280;63883;48.996;20.804;2023-04-24T00:05:23;96000.88;;;3.64;84.83
75290;BME280;63883;48.996;20.804;2023-04-24T00:07:49;95999.25;;;3.60;85.63
75290;BME280;63883;48.996;20.804;2023-04-24T00:10:18;96000.88;;;3.63;85.38
75290;BME280;63883;48.996;20.804;2023-04-24T00:12:44;95996.75;;;3.59;85.63
75290;BME280;63883;48.996;20.804;2023-04-24T00:15:10;95989.25;;;3.51;85.58
75290;BME280;63883;48.996;20.804;2023-04-24T00:17:36;95985.06;;;3.47;85.88
75290;BME280;63883;48.996;20.804;2023-04-24T00:20:02;95989.31;;;3.45;85.91
75290;BME280;63883;48.996;20.804;2023-04-24T00:22:30;95983.44;;;3.44;85.75
75290;BME280;63883;48.996;20.804;2023-04-24T00:24:56;95980.91;;;3.43;85.57
75290;BME280;63883;48.996;20.804;2023-04-24T00:27:22;95980.06;;;3.44;85.59
75290;BME280;63883;48.996;20.804;2023-04-24T00:29:48;95976.72;;;3.39;85.46
75290;BME280;63883;48.996;20.804;2023-04-24T00:32:14;95976.78;;;3.36;85.55
75290;BME280;63883;48.996;20.804;2023-04-24T00:34:40;95978.53;;;3.31;85.54
75290;BME280;63883;48.996;20.804;2023-04-24T00:37:07;95977.69;;;3.27;85.97
75290;BME280;63883;48.996;20.804;2023-04-24T00:39:33;95976.91;;;3.24;85.89
75290;BME280;63883;48.996;20.804;2023-04-24T00:41:59;95978.59;;;3.19;86.27
75290;BME280;63883;48.996;20.804;2023-04-24T00:44:25;95968.53;;;3.19;87.26
75290;BME280;63883;48.996;20.804;2023-04-24T00:46:50;95963.47;;;3.19;86.73
75290;BME280;63883;48.996;20.804;2023-04-24T00:49:20;95968.56;;;3.16;86.00
75290;BME280;63883;48.996;20.804;2023-04-24T00:51:47;95964.44;;;3.08;86.25
75290;BME280;63883;48.996;20.804;2023-04-24T00:54:14;95965.34;;;3.00;86.26
75290;BME280;63883;48.996;20.804;2023-04-24T00:56:41;95969.56;;;2.95;86.41
75290;BME280;63883;48.996;20.804;2023-04-24T00:59:08;95962.03;;;2.92;87.28
75290;BME280;63883;48.996;20.804;2023-04-24T01:01:34;95958.69;;;2.88;87.47
75290;BME280;63883;48.996;20.804;2023-04-24T01:04:00;95961.25;;;2.85;87.31
75290;BME280;63883;48.996;20.804;2023-04-24T01:06:29;95962.13;;;2.80;87.27
75290;BME280;63883;48.996;20.804;2023-04-24T01:08:57;95958.84;;;2.73;87.08
75290;BME280;63883;48.996;20.804;2023-04-24T01:11:24;95962.19;;;2.69;87.54
75290;BME280;63883;48.996;20.804;2023-04-24T01:13:51;95955.53;;;2.62;87.47
75290;BME280;63883;48.996;20.804;2023-04-24T01:16:18;95952.22;;;2.57;87.23
75290;BME280;63883;48.996;20.804;2023-04-24T01:18:46;95948.06;;;2.51;87.57
75290;BME280;63883;48.996;20.804;2023-04-24T01:21:14;95948.91;;;2.49;87.95
75290;BME280;63883;48.996;20.804;2023-04-24T01:23:40;95947.22;;;2.48;88.57
75290;BME280;63883;48.996;20.804;2023-04-24T01:26:06;95943.88;;;2.46;88.88
75290;BME280;63883;48.996;20.804;2023-04-24T01:28:32;95950.63;;;2.41;88.62
75290;BME280;63883;48.996;20.804;2023-04-24T01:30:57;95943.13;;;2.38;88.99
75290;BME280;63883;48.996;20.804;2023-04-24T01:33:25;95943.97;;;2.33;88.74
75290;BME280;63883;48.996;20.804;2023-04-24T01:35:51;95937.28;;;2.28;88.64
75290;BME280;63883;48.996;20.804;2023-04-24T01:38:17;95939.81;;;2.29;89.06
75290;BME280;63883;48.996;20.804;2023-04-24T01:40:43;95945.69;;;2.28;88.83
75290;BME280;63883;48.996;20.804;2023-04-24T01:43:09;95933.16;;;2.22;88.77
75290;BME280;63883;48.996;20.804;2023-04-24T01:45:34;95931.47;;;2.17;88.54
75290;BME280;63883;48.996;20.804;2023-04-24T01:48:00;95938.22;;;2.15;88.48
75290;BME280;63883;48.996;20.804;2023-04-24T01:50:26;95940.72;;;2.13;89.56
75290;BME280;63883;48.996;20.804;2023-04-24T01:52:52;95937.38;;;2.11;89.21
75290;BME280;63883;48.996;20.804;2023-04-24T01:55:18;95942.44;;;2.08;89.12
75290;BME280;63883;48.996;20.804;2023-04-24T01:57:44;95937.41;;;2.05;89.17
75290;BME280;63883;48.996;20.804;2023-04-24T02:00:10;95934.06;;;2.03;89.33
75290;BME280;63883;48.996;20.804;2023-04-24T02:02:37;95934.06;;;2.03;89.64
75290;BME280;63883;48.996;20.804;2023-04-24T02:05:06;95928.22;;;1.98;89.53
75290;BME280;63883;48.996;20.804;2023-04-24T02:07:32;95923.19;;;1.95;89.78
75290;BME280;63883;48.996;20.804;2023-04-24T02:09:58;95924.91;;;1.94;90.14
75290;BME280;63883;48.996;20.804;2023-04-24T02:12:24;95929.06;;;1.99;90.29
75290;BME280;63883;48.996;20.804;2023-04-24T02:14:50;95927.41;;;1.93;89.91
75290;BME280;63883;48.996;20.804;2023-04-24T02:17:16;95924.06;;;1.88;90.19
75290;BME280;63883;48.996;20.804;2023-04-24T02:19:42;95923.25;;;1.86;90.34
75290;BME280;63883;48.996;20.804;2023-04-24T02:22:08;95927.44;;;1.87;90.31
75290;BME280;63883;48.996;20.804;2023-04-24T02:24:34;95923.25;;;1.86;90.00
75290;BME280;63883;48.996;20.804;2023-04-24T02:26:59;95923.25;;;1.83;90.05
75290;BME280;63883;48.996;20.804;2023-04-24T02:29:25;95924.09;;;1.82;90.02
75290;BME280;63883;48.996;20.804;2023-04-24T02:31:51;95909.00;;;1.80;90.42
75290;BME280;63883;48.996;20.804;2023-04-24T02:34:17;95914.06;;;1.79;90.71
75290;BME280;63883;48.996;20.804;2023-04-24T02:36:42;95910.72;;;1.77;90.62
75290;BME280;63883;48.996;20.804;2023-04-24T02:39:08;95910.75;;;1.72;90.45
75290;BME280;63883;48.996;20.804;2023-04-24T02:41:34;95909.06;;;1.70;90.76
75290;BME280;63883;48.996;20.804;2023-04-24T02:43:59;95908.28;;;1.65;90.78
75290;BME280;63883;48.996;20.804;2023-04-24T02:46:25;95901.56;;;1.61;90.88
75290;BME280;63883;48.996;20.804;2023-04-24T02:48:51;95905.75;;;1.58;90.98
75290;BME280;63883;48.996;20.804;2023-04-24T02:51:17;95894.06;;;1.54;91.02
75290;BME280;63883;48.996;20.804;2023-04-24T02:53:43;95900.75;;;1.57;91.24
75290;BME280;63883;48.996;20.804;2023-04-24T02:56:08;95899.91;;;1.55;90.89
75290;BME280;63883;48.996;20.804;2023-04-24T02:58:37;95900.75;;;1.55;90.75
75290;BME280;63883;48.996;20.804;2023-04-24T03:01:03;95899.06;;;1.61;90.58
75290;BME280;63883;48.996;20.804;2023-04-24T03:03:29;95901.56;;;1.59;90.50
75290;BME280;63883;48.996;20.804;2023-04-24T03:05:55;95901.59;;;1.54;90.43
75290;BME280;63883;48.996;20.804;2023-04-24T03:08:21;95897.41;;;1.56;90.95
75290;BME280;63883;48.996;20.804;2023-04-24T03:10:46;95895.72;;;1.54;91.11
75290;BME280;63883;48.996;20.804;2023-04-24T03:13:12;95892.41;;;1.50;90.67
75290;BME280;63883;48.996;20.804;2023-04-24T03:15:38;95894.91;;;1.47;90.97
75290;BME280;63883;48.996;20.804;2023-04-24T03:18:04;95900.78;;;1.45;91.15
75290;BME280;63883;48.996;20.804;2023-04-24T03:20:29;95905.84;;;1.43;91.17
75290;BME280;63883;48.996;20.804;2023-04-24T03:22:55;95904.16;;;1.42;91.04
75290;BME280;63883;48.996;20.804;2023-04-24T03:25:22;95899.13;;;1.39;91.37
75290;BME280;63883;48.996;20.804;2023-04-24T03:27:48;95898.28;;;1.40;91.35
75290;BME280;63883;48.996;20.804;2023-04-24T03:30:13;95902.47;;;1.38;91.46
75290;BME280;63883;48.996;20.804;2023-04-24T03:32:39;95897.44;;;1.38;91.29
75290;BME280;63883;48.996;20.804;2023-04-24T03:35:06;95897.47;;;1.35;91.10
75290;BME280;63883;48.996;20.804;2023-04-24T03:37:33;95894.13;;;1.32;90.94
75290;BME280;63883;48.996;20.804;2023-04-24T03:39:59;95900.00;;;1.28;91.24
75290;BME280;63883;48.996;20.804;2023-04-24T03:42:25;95900.00;;;1.28;91.20
75290;BME280;63883;48.996;20.804;2023-04-24T03:44:50;95898.31;;;1.31;91.46
75290;BME280;63883;48.996;20.804;2023-04-24T03:47:16;95901.66;;;1.30;91.32
75290;BME280;63883;48.996;20.804;2023-04-24T03:49:42;95907.50;;;1.32;91.41
75290;BME280;63883;48.996;20.804;2023-04-24T03:52:07;95905.84;;;1.34;91.76
75290;BME280;63883;48.996;20.804;2023-04-24T03:54:33;95901.66;;;1.36;91.92
75290;BME280;63883;48.996;20.804;2023-04-24T03:57:00;95899.16;;;1.36;91.65
75290;BME280;63883;48.996;20.804;2023-04-24T03:59:26;95902.50;;;1.35;91.42
75290;BME280;63883;48.996;20.804;2023-04-24T04:01:52;95893.25;;;1.37;91.60
75290;BME280;63883;48.996;20.804;2023-04-24T04:04:18;95901.63;;;1.41;91.53
75290;BME280;63883;48.996;20.804;2023-04-24T04:06:44;95900.78;;;1.45;91.65
75290;BME280;63883;48.996;20.804;2023-04-24T04:09:10;95895.75;;;1.48;91.67
75290;BME280;63883;48.996;20.804;2023-04-24T04:11:36;95894.91;;;1.50;91.70
75290;BME280;63883;48.996;20.804;2023-04-24T04:14:02;95894.88;;;1.53;92.24
75290;BME280;63883;48.996;20.804;2023-04-24T04:16:28;95896.56;;;1.58;91.76
75290;BME280;63883;48.996;20.804;2023-04-24T04:18:53;95894.88;;;1.60;91.41
75290;BME280;63883;48.996;20.804;2023-04-24T04:21:19;95903.25;;;1.65;91.59
75290;BME280;63883;48.996;20.804;2023-04-24T04:23:45;95904.06;;;1.70;91.25
75290;BME280;63883;48.996;20.804;2023-04-24T04:26:11;95904.06;;;1.73;90.90
75290;BME280;63883;48.996;20.804;2023-04-24T04:28:38;95904.03;;;1.76;91.01
75290;BME280;63883;48.996;20.804;2023-04-24T04:31:05;95901.47;;;1.80;90.82
75290;BME280;63883;48.996;20.804;2023-04-24T04:33:33;95905.63;;;1.93;90.69
75290;BME280;63883;48.996;20.804;2023-04-24T04:35:59;95897.22;;;1.96;90.47
75290;BME280;63883;48.996;20.804;2023-04-24T04:38:25;95900.56;;;1.95;90.32
75290;BME280;63883;48.996;20.804;2023-04-24T04:40:55;95901.41;;;1.97;90.16
75290;BME280;63883;48.996;20.804;2023-04-24T04:43:24;95890.47;;;2.04;90.45
75290;BME280;63883;48.996;20.804;2023-04-24T04:45:50;95894.59;;;2.17;90.37
75290;BME280;63883;48.996;20.804;2023-04-24T04:48:17;95897.00;;;2.32;89.76
75290;BME280;63883;48.996;20.804;2023-04-24T04:50:44;95897.72;;;2.51;89.56
75290;BME280;63883;48.996;20.804;2023-04-24T04:53:10;95887.50;;;2.69;88.47
75290;BME280;63883;48.996;20.804;2023-04-24T04:55:36;95887.34;;;2.89;87.96
75290;BME280;63883;48.996;20.804;2023-04-24T04:58:02;95882.94;;;3.12;87.46
75290;BME280;63883;48.996;20.804;2023-04-24T05:00:28;95886.06;;;3.36;86.78
75290;BME280;63883;48.996;20.804;2023-04-24T05:02:59;95880.78;;;3.57;86.10
75290;BME280;63883;48.996;20.804;2023-04-24T05:05:25;95883.16;;;3.68;85.31
75290;BME280;63883;48.996;20.804;2023-04-24T05:07:50;95887.25;;;3.79;85.06
75290;BME280;63883;48.996;20.804;2023-04-24T05:10:16;95882.00;;;3.95;84.22
75290;BME280;63883;48.996;20.804;2023-04-24T05:12:42;95879.22;;;4.14;83.61
75290;BME280;63883;48.996;20.804;2023-04-24T05:15:08;95878.19;;;4.26;82.92
75290;BME280;63883;48.996;20.804;2023-04-24T05:17:34;95877.13;;;4.42;82.78
75290;BME280;63883;48.996;20.804;2023-04-24T05:19:59;95867.66;;;4.56;82.56
75290;BME280;63883;48.996;20.804;2023-04-24T05:22:25;95870.81;;;4.69;82.27
75290;BME280;63883;48.996;20.804;2023-04-24T05:24:51;95866.44;;;4.80;81.13
75290;BME280;63883;48.996;20.804;2023-04-24T05:27:17;95874.72;;;4.88;80.38
75290;BME280;63883;48.996;20.804;2023-04-24T05:29:43;95865.31;;;4.96;79.48
75290;BME280;63883;48.996;20.804;2023-04-24T05:32:09;95859.31;;;5.03;79.26
75290;BME280;63883;48.996;20.804;2023-04-24T05:34:35;95865.81;;;5.17;78.88
75290;BME280;63883;48.996;20.804;2023-04-24T05:37:00;95865.56;;;5.30;78.77
75290;BME280;63883;48.996;20.804;2023-04-24T05:39:26;95860.22;;;5.45;79.16
75290;BME280;63883;48.996;20.804;2023-04-24T05:41:52;95866.53;;;5.66;78.69
75290;BME280;63883;48.996;20.804;2023-04-24T05:44:18;95860.13;;;5.93;79.31
75290;BME280;63883;48.996;20.804;2023-04-24T05:46:43;95857.22;;;6.11;78.83
75290;BME280;63883;48.996;20.804;2023-04-24T05:49:09;95861.00;;;6.31;77.05
75290;BME280;63883;48.996;20.804;2023-04-24T05:51:35;95848.97;;;6.40;76.61
75290;BME280;63883;48.996;20.804;2023-04-24T05:54:01;95851.16;;;6.55;75.23
75290;BME280;63883;48.996;20.804;2023-04-24T05:56:28;95853.38;;;6.68;75.00
75290;BME280;63883;48.996;20.804;2023-04-24T05:58:54;95852.91;;;6.87;74.56
75290;BME280;63883;48.996;20.804;2023-04-24T06:01:20;95851.97;;;6.91;72.89
75290;BME280;63883;48.996;20.804;2023-04-24T06:03:46;95863.63;;;6.98;72.46
75290;BME280;63883;48.996;20.804;2023-04-24T06:06:12;95850.63;;;7.11;73.08
75290;BME280;63883;48.996;20.804;2023-04-24T06:08:38;95851.09;;;7.25;71.86
75290;BME280;63883;48.996;20.804;2023-04-24T06:11:04;95853.94;;;7.45;71.67
75290;BME280;63883;48.996;20.804;2023-04-24T06:13:29;95848.44;;;7.60;70.19
75290;BME280;63883;48.996;20.804;2023-04-24T06:15:55;95850.75;;;7.69;69.55
75290;BME280;63883;48.996;20.804;2023-04-24T06:18:21;95847.06;;;7.79;69.92
75290;BME280;63883;48.996;20.804;2023-04-24T06:20:47;95847.44;;;7.95;69.99
75290;BME280;63883;48.996;20.804;2023-04-24T06:23:12;95846.81;;;8.16;68.46
75290;BME280;63883;48.996;20.804;2023-04-24T06:25:38;95836.00;;;8.39;67.99
75290;BME280;63883;48.996;20.804;2023-04-24T06:28:04;95833.00;;;8.54;66.37
75290;BME280;63883;48.996;20.804;2023-04-24T06:30:31;95830.00;;;8.68;66.42
75290;BME280;63883;48.996;20.804;2023-04-24T06:32:56;95829.31;;;8.89;67.36
75290;BME280;63883;48.996;20.804;2023-04-24T06:35:22;95823.75;;;9.03;67.41
75290;BME280;63883;48.996;20.804;2023-04-24T06:37:48;95825.50;;;9.27;66.22
75290;BME280;63883;48.996;20.804;2023-04-24T06:40:14;95823.09;;;9.48;65.22
75290;BME280;63883;48.996;20.804;2023-04-24T06:42:40;95820.03;;;9.61;64.06
75290;BME280;63883;48.996;20.804;2023-04-24T06:45:06;95813.13;;;9.65;62.89
75290;BME280;63883;48.996;20.804;2023-04-24T06:47:32;95815.06;;;9.82;63.41
75290;BME280;63883;48.996;20.804;2023-04-24T06:49:57;95811.75;;;10.01;63.09
75290;BME280;63883;48.996;20.804;2023-04-24T06:52:23;95804.31;;;10.20;62.25
75290;BME280;63883;48.996;20.804;2023-04-24T06:54:49;95806.03;;;10.41;61.32
75290;BME280;63883;48.996;20.804;2023-04-24T06:57:15;95806.63;;;10.68;62.11
75290;BME280;63883;48.996;20.804;2023-04-24T06:59:42;95794.03;;;10.85;61.64
75290;BME280;63883;48.996;20.804;2023-04-24T07:02:07;95794.09;;;11.04;62.68
75290;BME280;63883;48.996;20.804;2023-04-24T07:04:33;95793.19;;;11.25;62.36
75290;BME280;63883;48.996;20.804;2023-04-24T07:06:59;95789.66;;;11.48;61.95
75290;BME280;63883;48.996;20.804;2023-04-24T07:09:25;95788.03;;;11.66;60.66
75290;BME280;63883;48.996;20.804;2023-04-24T07:11:52;95779.34;;;11.89;61.22
75290;BME280;63883;48.996;20.804;2023-04-24T07:14:19;95774.19;;;12.09;59.71
75290;BME280;63883;48.996;20.804;2023-04-24T07:16:45;95769.38;;;12.20;59.03
75290;BME280;63883;48.996;20.804;2023-04-24T07:19:11;95772.72;;;12.39;58.99
75290;BME280;63883;48.996;20.804;2023-04-24T07:21:37;95767.19;;;12.48;58.66
75290;BME280;63883;48.996;20.804;2023-04-24T07:24:03;95759.50;;;12.48;58.61
75290;BME280;63883;48.996;20.804;2023-04-24T07:26:30;95768.25;;;12.62;58.11
75290;BME280;63883;48.996;20.804;2023-04-24T07:28:56;95761.03;;;12.87;58.73
75290;BME280;63883;48.996;20.804;2023-04-24T07:31:22;95756.56;;;13.08;57.25
75290;BME280;63883;48.996;20.804;2023-04-24T07:33:48;95752.50;;;13.38;57.13
75290;BME280;63883;48.996;20.804;2023-04-24T07:36:14;95753.34;;;13.70;56.17
75290;BME280;63883;48.996;20.804;2023-04-24T07:38:46;95754.38;;;13.99;55.09
75290;BME280;63883;48.996;20.804;2023-04-24T07:41:13;95748.56;;;14.27;54.68
75290;BME280;63883;48.996;20.804;2023-04-24T07:43:39;95739.06;;;14.44;54.23
75290;BME280;63883;48.996;20.804;2023-04-24T07:46:06;95739.53;;;14.81;53.07
75290;BME280;63883;48.996;20.804;2023-04-24T07:48:31;95733.63;;;15.23;51.01
75290;BME280;63883;48.996;20.804;2023-04-24T07:50:57;95727.59;;;15.52;51.30
75290;BME280;63883;48.996;20.804;2023-04-24T07:53:23;95726.69;;;15.82;48.96
75290;BME280;63883;48.996;20.804;2023-04-24T07:55:49;95726.94;;;16.45;45.28
75290;BME280;63883;48.996;20.804;2023-04-24T07:58:14;95715.75;;;16.98;42.86
75290;BME280;63883;48.996;20.804;2023-04-24T08:00:40;95708.63;;;17.40;42.16
75290;BME280;63883;48.996;20.804;2023-04-24T08:03:06;95709.88;;;17.47;40.05
75290;BME280;63883;48.996;20.804;2023-04-24T08:05:32;95703.16;;;17.70;40.81
75290;BME280;63883;48.996;20.804;2023-04-24T08:07:58;95702.91;;;17.85;39.19
75290;BME280;63883;48.996;20.804;2023-04-24T08:10:24;95693.59;;;17.95;40.25
75290;BME280;63883;48.996;20.804;2023-04-24T08:12:51;95700.81;;;18.27;38.89
75290;BME280;63883;48.996;20.804;2023-04-24T08:15:17;95693.38;;;18.46;38.79
75290;BME280;63883;48.996;20.804;2023-04-24T08:17:42;95709.31;;;17.80;38.30
75290;BME280;63883;48.996;20.804;2023-04-24T08:20:09;95698.84;;;17.32;38.08
75290;BME280;63883;48.996;20.804;2023-04-24T08:22:42;95709.88;;;17.09;38.59
75290;BME280;63883;48.996;20.804;2023-04-24T08:25:10;95689.34;;;16.82;38.53
75290;BME280;63883;48.996;20.804;2023-04-24T08:27:36;95713.28;;;16.57;38.90
75290;BME280;63883;48.996;20.804;2023-04-24T08:30:03;95703.78;;;16.45;39.64
75290;BME280;63883;48.996;20.804;2023-04-24T08:32:29;95707.41;;;16.55;38.71
75290;BME280;63883;48.996;20.804;2023-04-24T08:34:56;95705.91;;;16.65;39.48
75290;BME280;63883;48.996;20.804;2023-04-24T08:37:22;95690.88;;;16.72;39.07
75290;BME280;63883;48.996;20.804;2023-04-24T08:39:49;95702.03;;;16.85;38.48
75290;BME280;63883;48.996;20.804;2023-04-24T08:42:17;95694.63;;;17.06;38.49
75290;BME280;63883;48.996;20.804;2023-04-24T08:44:44;95696.88;;;17.48;37.97
75290;BME280;63883;48.996;20.804;2023-04-24T08:47:10;95694.25;;;17.86;37.29
75290;BME280;63883;48.996;20.804;2023-04-24T08:49:37;95706.56;;;17.70;36.50
75290;BME280;63883;48.996;20.804;2023-04-24T08:52:05;95695.00;;;17.76;36.79
75290;BME280;63883;48.996;20.804;2023-04-24T08:54:32;95698.44;;;17.64;36.48
75290;BME280;63883;48.996;20.804;2023-04-24T08:56:59;95694.59;;;17.44;36.23
75290;BME280;63883;48.996;20.804;2023-04-24T08:59:30;95691.41;;;17.66;36.36
75290;BME280;63883;48.996;20.804;2023-04-24T09:01:56;95686.53;;;17.74;35.12
75290;BME280;63883;48.996;20.804;2023-04-24T09:04:24;95694.19;;;17.63;36.01
75290;BME280;63883;48.996;20.804;2023-04-24T09:06:59;95694.59;;;17.69;35.14
75290;BME280;63883;48.996;20.804;2023-04-24T09:09:25;95689.19;;;17.85;35.82
75290;BME280;63883;48.996;20.804;2023-04-24T09:11:52;95688.75;;;17.91;34.18
75290;BME280;63883;48.996;20.804;2023-04-24T09:14:21;95685.69;;;17.73;35.39
75290;BME280;63883;48.996;20.804;2023-04-24T09:16:48;95679.31;;;17.66;35.49
75290;BME280;63883;48.996;20.804;2023-04-24T09:19:14;95685.94;;;17.70;34.50
75290;BME280;63883;48.996;20.804;2023-04-24T09:21:39;95689.22;;;17.72;34.04
75290;BME280;63883;48.996;20.804;2023-04-24T09:24:15;95696.09;;;17.84;34.83
75290;BME280;63883;48.996;20.804;2023-04-24T09:26:43;95667.47;;;17.64;33.69
75290;BME280;63883;48.996;20.804;2023-04-24T09:29:14;95694.25;;;17.74;33.12
75290;BME280;63883;48.996;20.804;2023-04-24T09:31:41;95674.78;;;17.57;34.30
75290;BME280;63883;48.996;20.804;2023-04-24T09:34:07;95686.13;;;17.67;34.65
75290;BME280;63883;48.996;20.804;2023-04-24T09:36:45;95685.63;;;17.99;34.47
75290;BME280;63883;48.996;20.804;2023-04-24T09:39:13;95672.97;;;18.19;33.65
75290;BME280;63883;48.996;20.804;2023-04-24T09:41:55;95696.69;;;17.88;33.44
75290;BME280;63883;48.996;20.804;2023-04-24T09:44:26;95671.59;;;17.66;34.40
75290;BME280;63883;48.996;20.804;2023-04-24T09:46:57;95695.44;;;17.57;33.94
75290;BME280;63883;48.996;20.804;2023-04-24T09:49:25;95686.31;;;17.77;33.80
75290;BME280;63883;48.996;20.804;2023-04-24T09:51:52;95671.72;;;17.65;34.51
75290;BME280;63883;48.996;20.804;2023-04-24T09:54:20;95666.81;;;17.60;34.89
75290;BME280;63883;48.996;20.804;2023-04-24T09:56:50;95693.97;;;17.53;35.70
75290;BME280;63883;48.996;20.804;2023-04-24T09:59:20;95704.50;;;17.37;34.97
75290;BME280;63883;48.996;20.804;2023-04-24T10:01:46;95667.00;;;17.33;36.27
75290;BME280;63883;48.996;20.804;2023-04-24T10:04:20;95675.91;;;17.53;36.92
75290;BME280;63883;48.996;20.804;2023-04-24T10:06:48;95667.97;;;17.43;35.65
75290;BME280;63883;48.996;20.804;2023-04-24T10:09:15;95679.56;;;17.25;37.43
75290;BME280;63883;48.996;20.804;2023-04-24T10:11:45;95669.25;;;17.38;37.07
75290;BME280;63883;48.996;20.804;2023-04-24T10:14:19;95670.50;;;17.20;36.93
75290;BME280;63883;48.996;20.804;2023-04-24T10:16:58;95657.47;;;17.46;37.98
75290;BME280;63883;48.996;20.804;2023-04-24T10:19:26;95666.97;;;17.46;37.48
75290;BME280;63883;48.996;20.804;2023-04-24T10:21:52;95659.06;;;17.73;37.61
75290;BME280;63883;48.996;20.804;2023-04-24T10:24:18;95676.97;;;17.63;38.74
75290;BME280;63883;48.996;20.804;2023-04-24T10:26:47;95668.22;;;17.40;37.70
75290;BME280;63883;48.996;20.804;2023-04-24T10:29:15;95671.63;;;17.41;37.16
75290;BME280;63883;48.996;20.804;2023-04-24T10:31:40;95674.81;;;17.32;39.11
75290;BME280;63883;48.996;20.804;2023-04-24T10:34:08;95673.59;;;17.12;38.58
75290;BME280;63883;48.996;20.804;2023-04-24T10:36:35;95677.41;;;17.19;40.69
75290;BME280;63883;48.996;20.804;2023-04-24T10:39:02;95661.53;;;17.12;39.51
75290;BME280;63883;48.996;20.804;2023-04-24T10:41:30;95676.56;;;16.93;40.68
75290;BME280;63883;48.996;20.804;2023-04-24T10:44:10;95675.97;;;16.90;40.71
75290;BME280;63883;48.996;20.804;2023-04-24T10:46:36;95676.06;;;17.01;42.08
75290;BME280;63883;48.996;20.804;2023-04-24T10:49:07;95664.00;;;17.01;42.46
75290;BME280;63883;48.996;20.804;2023-04-24T10:51:52;95676.47;;;16.69;43.64
75290;BME280;63883;48.996;20.804;2023-04-24T10:54:33;95674.44;;;16.48;44.46
75290;BME280;63883;48.996;20.804;2023-04-24T10:59:49;95684.66;;;16.22;46.04
75290;BME280;63883;48.996;20.804;2023-04-24T11:02:16;95684.28;;;16.01;46.84
75290;BME280;63883;48.996;20.804;2023-04-24T11:04:43;95686.91;;;15.73;47.92
75290;BME280;63883;48.996;20.804;2023-04-24T11:07:09;95698.97;;;15.58;48.39
75290;BME280;63883;48.996;20.804;2023-04-24T11:09:36;95700.53;;;15.33;49.64
75290;BME280;63883;48.996;20.804;2023-04-24T11:12:04;95708.91;;;14.92;48.50
75290;BME280;63883;48.996;20.804;2023-04-24T11:17:31;95713.66;;;14.84;47.52
75290;BME280;63883;48.996;20.804;2023-04-24T11:20:09;95701.88;;;14.96;47.66
75290;BME280;63883;48.996;20.804;2023-04-24T11:22:36;95710.44;;;15.10;47.85
75290;BME280;63883;48.996;20.804;2023-04-24T11:25:03;95701.91;;;15.38;47.73
75290;BME280;63883;48.996;20.804;2023-04-24T11:27:31;95699.78;;;15.73;48.16
75290;BME280;63883;48.996;20.804;2023-04-24T11:30:02;95688.63;;;16.14;47.96
75290;BME280;63883;48.996;20.804;2023-04-24T11:32:29;95698.53;;;16.47;46.81
75290;BME280;63883;48.996;20.804;2023-04-24T11:35:02;95690.69;;;16.88;46.05
75290;BME280;63883;48.996;20.804;2023-04-24T11:37:33;95690.69;;;17.00;44.00
75290;BME280;63883;48.996;20.804;2023-04-24T11:40:00;95690.19;;;16.95;44.21
75290;BME280;63883;48.996;20.804;2023-04-24T11:42:26;95688.72;;;16.66;43.87
75290;BME280;63883;48.996;20.804;2023-04-24T11:44:52;95696.06;;;16.58;44.40
75290;BME280;63883;48.996;20.804;2023-04-24T11:47:19;95686.41;;;16.22;44.94
75290;BME280;63883;48.996;20.804;2023-04-24T11:49:45;95694.25;;;15.79;45.87
75290;BME280;63883;48.996;20.804;2023-04-24T11:52:15;95698.22;;;15.42;46.59
75290;BME280;63883;48.996;20.804;2023-04-24T11:54:47;95706.75;;;15.14;48.47
75290;BME280;63883;48.996;20.804;2023-04-24T11:57:14;95700.75;;;14.85;49.60
75290;BME280;63883;48.996;20.804;2023-04-24T11:59:39;95695.03;;;14.66;50.13
75290;BME280;63883;48.996;20.804;2023-04-24T12:02:06;95722.31;;;14.53;50.69
75290;BME280;63883;48.996;20.804;2023-04-24T12:04:40;95715.13;;;14.28;52.06
75290;BME280;63883;48.996;20.804;2023-04-24T12:07:06;95691.50;;;14.07;52.67
75290;BME280;63883;48.996;20.804;2023-04-24T12:09:58;95707.56;;;13.95;53.46
75290;BME280;63883;48.996;20.804;2023-04-24T12:12:28;95715.19;;;13.97;53.61
75290;BME280;63883;48.996;20.804;2023-04-24T12:14:56;95722.63;;;14.01;52.73
75290;BME280;63883;48.996;20.804;2023-04-24T12:17:30;95707.72;;;14.08;53.70
75290;BME280;63883;48.996;20.804;2023-04-24T12:20:03;95714.84;;;14.03;54.85
75290;BME280;63883;48.996;20.804;2023-04-24T12:22:50;95709.66;;;13.89;55.08
75290;BME280;63883;48.996;20.804;2023-04-24T12:25:17;95703.28;;;13.80;57.38
75290;BME280;63883;48.996;20.804;2023-04-24T12:27:44;95705.75;;;13.82;56.85
75290;BME280;63883;48.996;20.804;2023-04-24T12:30:12;95717.06;;;13.78;57.19
75290;BME280;63883;48.996;20.804;2023-04-24T12:32:58;95710.53;;;13.56;59.65
75290;BME280;63883;48.996;20.804;2023-04-24T12:35:25;95706.06;;;13.44;60.65
75290;BME280;63883;48.996;20.804;2023-04-24T12:37:51;95708.09;;;13.22;61.98
75290;BME280;63883;48.996;20.804;2023-04-24T12:40:19;95707.09;;;13.07;63.25
75290;BME280;63883;48.996;20.804;2023-04-24T12:42:47;95704.50;;;12.91;63.53
75290;BME280;63883;48.996;20.804;2023-04-24T12:45:13;95701.66;;;12.80;66.59
75290;BME280;63883;48.996;20.804;2023-04-24T12:47:41;95697.13;;;12.68;66.59
75290;BME280;63883;48.996;20.804;2023-04-24T12:50:08;95701.66;;;12.63;66.50
75290;BME280;63883;48.996;20.804;2023-04-24T12:52:35;95694.03;;;12.62;66.10
75290;BME280;63883;48.996;20.804;2023-04-24T12:55:01;95702.47;;;12.64;65.86
75290;BME280;63883;48.996;20.804;2023-04-24T12:57:29;95697.50;;;12.61;67.80
75290;BME280;63883;48.996;20.804;2023-04-24T12:59:56;95706.19;;;12.58;67.62